Time;durP1;ratioP1;P1;durP2;ratioP2;P2;SDS_P1;SDS_P2;PMS_P1;PMS_P2;Temp;Humidity;BMP_temperature;BMP_pressure;BME280_temperature;BME280_humidity;BME280_pressure;Samples;Min_cycle;Max_cycle;Signal;HPM_P1;HPM_P2
2020/12/16 00:00:31;;;;;;;16.90;11.98;;;5.20;77.50;;;;;;5096857;28;20315;-70
2020/12/16 00:02:56;;;;;;;24.58;17.92;;;5.20;78.10;;;;;;5096809;28;20074;-69
2020/12/16 00:05:22;;;;;;;19.60;10.32;;;5.30;77.20;;;;;;5096655;28;20059;-69
2020/12/16 00:07:48;;;;;;;14.70;8.93;;;5.30;77.00;;;;;;5096645;28;20024;-69
2020/12/16 00:10:13;;;;;;;10.18;6.50;;;5.40;77.40;;;;;;5078759;28;20028;-69
2020/12/16 00:12:45;;;;;;;8.57;5.70;;;5.30;77.10;;;;;;5096632;28;20025;-69
2020/12/16 00:15:11;;;;;;;7.32;4.80;;;5.40;76.50;;;;;;5096584;28;20427;-70
2020/12/16 00:17:37;;;;;;;6.53;4.20;;;5.40;77.70;;;;;;5096815;28;20028;-69
2020/12/16 00:20:08;;;;;;;9.38;3.88;;;5.40;77.80;;;;;;5078733;28;20028;-69
2020/12/16 00:22:38;;;;;;;8.35;4.05;;;5.50;78.50;;;;;;5096704;28;20020;-69
2020/12/16 00:25:04;;;;;;;16.38;4.82;;;5.50;78.00;;;;;;5096993;28;20026;-69
2020/12/16 00:27:30;;;;;;;14.63;5.82;;;5.40;78.20;;;;;;5078509;28;20052;-69
2020/12/16 00:29:56;;;;;;;12.95;5.38;;;5.40;78.40;;;;;;5096757;28;20024;-69
2020/12/16 00:32:21;;;;;;;12.73;5.05;;;5.40;79.10;;;;;;5096473;28;20037;-70
2020/12/16 00:34:49;;;;;;;15.10;6.38;;;5.40;79.30;;;;;;5078498;28;20035;-69
2020/12/16 00:37:15;;;;;;;25.33;14.60;;;5.40;79.10;;;;;;5096515;28;20024;-69
2020/12/16 00:39:41;;;;;;;21.05;12.68;;;5.40;78.30;;;;;;5096409;28;20386;-69
2020/12/16 00:42:07;;;;;;;10.70;7.13;;;5.30;76.30;;;;;;5096509;28;20028;-69
2020/12/16 00:44:33;;;;;;;5.80;3.95;;;5.40;78.00;;;;;;5078391;28;20113;-69
2020/12/16 00:46:59;;;;;;;5.18;3.95;;;5.40;77.70;;;;;;5096542;28;20024;-69
2020/12/16 00:49:26;;;;;;;9.88;4.60;;;5.30;77.60;;;;;;5100404;28;20101;-69
2020/12/16 00:51:54;;;;;;;4.25;3.35;;;5.20;77.60;;;;;;5100065;28;20414;-70
2020/12/16 00:54:20;;;;;;;3.80;2.65;;;5.20;77.20;;;;;;5100252;28;20031;-71
2020/12/16 00:56:46;;;;;;;3.90;2.28;;;5.30;76.40;;;;;;5099966;28;20032;-69
2020/12/16 00:59:12;;;;;;;3.50;1.50;;;5.40;76.00;;;;;;5100236;28;20412;-69
2020/12/16 01:01:38;;;;;;;3.10;1.80;;;5.40;76.10;;;;;;5099745;28;20111;-71
2020/12/16 01:04:03;;;;;;;3.30;2.60;;;5.50;76.20;;;;;;5099826;28;20099;-72
2020/12/16 01:06:29;;;;;;;3.58;2.50;;;5.50;74.60;;;;;;5099755;28;20441;-72
2020/12/16 01:08:54;;;;;;;4.97;3.35;;;5.50;74.40;;;;;;5099800;28;20020;-72
2020/12/16 01:11:20;;;;;;;4.65;2.58;;;5.50;75.20;;;;;;5099969;28;20035;-72
2020/12/16 01:13:48;;;;;;;4.78;3.00;;;5.50;75.80;;;;;;5099820;28;20432;-72
2020/12/16 01:16:14;;;;;;;4.90;2.30;;;5.50;74.70;;;;;;5099605;28;20292;-72
2020/12/16 01:18:39;;;;;;;3.10;2.22;;;5.50;74.80;;;;;;5099559;28;20115;-72
2020/12/16 01:21:05;;;;;;;3.13;2.30;;;5.40;75.30;;;;;;5099725;28;20028;-72
2020/12/16 01:23:33;;;;;;;3.88;2.65;;;5.40;76.00;;;;;;5081473;28;20438;-72
2020/12/16 01:26:01;;;;;;;4.13;2.70;;;5.30;74.30;;;;;;5081171;28;20026;-72
2020/12/16 01:28:27;;;;;;;4.60;3.25;;;5.30;73.90;;;;;;5099461;28;20301;-72
2020/12/16 01:30:52;;;;;;;4.28;2.40;;;5.30;73.60;;;;;;5099360;28;20028;-72
2020/12/16 01:33:18;;;;;;;3.90;2.20;;;5.40;74.40;;;;;;5099265;28;20024;-72
2020/12/16 01:35:44;;;;;;;2.38;1.67;;;5.40;75.20;;;;;;5099291;28;20024;-72
2020/12/16 01:38:12;;;;;;;3.40;2.22;;;5.30;75.30;;;;;;5099273;28;20024;-72
2020/12/16 01:40:40;;;;;;;2.92;1.67;;;5.30;75.20;;;;;;5099458;28;20031;-72
2020/12/16 01:43:06;;;;;;;2.65;1.80;;;5.30;75.70;;;;;;5099094;28;20024;-72
2020/12/16 01:45:31;;;;;;;3.03;1.67;;;5.20;75.70;;;;;;5099122;28;20031;-72
2020/12/16 01:47:59;;;;;;;3.75;1.73;;;5.10;74.90;;;;;;5098988;28;20073;-72
2020/12/16 01:50:26;;;;;;;2.55;1.52;;;5.10;75.10;;;;;;5099041;28;20065;-72
2020/12/16 01:52:55;;;;;;;1.58;1.25;;;5.10;75.30;;;;;;5098782;28;20024;-72
2020/12/16 01:55:22;;;;;;;2.60;1.75;;;5.20;75.90;;;;;;5098862;28;20114;-72
2020/12/16 01:57:53;;;;;;;2.95;1.85;;;5.20;76.60;;;;;;5098736;28;20031;-72
2020/12/16 02:00:19;;;;;;;3.08;2.00;;;5.10;75.70;;;;;;5098046;28;20028;-72
2020/12/16 02:02:51;;;;;;;2.83;2.08;;;5.00;76.90;;;;;;5098581;28;20024;-72
2020/12/16 02:05:22;;;;;;;2.83;1.90;;;5.00;77.50;;;;;;5098749;28;20412;-72
2020/12/16 02:07:52;;;;;;;4.18;2.20;;;5.00;77.60;;;;;;5098643;28;20016;-72
2020/12/16 02:10:21;;;;;;;2.17;1.73;;;5.00;77.50;;;;;;5097748;28;20345;-72
2020/12/16 02:12:47;;;;;;;3.03;1.80;;;5.00;77.20;;;;;;5098500;28;20028;-72
2020/12/16 02:15:12;;;;;;;3.00;2.25;;;5.00;77.00;;;;;;5098415;28;20435;-72
2020/12/16 02:17:38;;;;;;;2.42;2.00;;;4.90;77.10;;;;;;5098581;28;20016;-71
2020/12/16 02:20:07;;;;;;;1.92;1.40;;;5.00;77.70;;;;;;5098451;28;20373;-69
2020/12/16 02:22:32;;;;;;;2.45;1.75;;;5.00;77.50;;;;;;5098173;28;20417;-69
2020/12/16 02:25:06;;;;;;;3.13;1.77;;;5.00;77.20;;;;;;5098683;28;20039;-71
2020/12/16 02:27:33;;;;;;;2.28;1.55;;;5.00;78.30;;;;;;5098104;28;20121;-70
2020/12/16 02:29:58;;;;;;;4.05;2.03;;;4.90;78.60;;;;;;5098118;28;20050;-70
2020/12/16 02:32:26;;;;;;;3.10;2.35;;;4.90;77.30;;;;;;5098121;28;20028;-69
2020/12/16 02:34:53;;;;;;;3.08;2.22;;;5.00;77.80;;;;;;5098045;28;20424;-69
2020/12/16 02:37:19;;;;;;;3.25;1.77;;;5.00;77.10;;;;;;5098290;28;20036;-69
2020/12/16 02:39:46;;;;;;;3.20;1.98;;;5.00;77.70;;;;;;5098133;28;20497;-69
2020/12/16 02:42:11;;;;;;;2.75;1.60;;;5.00;76.30;;;;;;5097863;28;20069;-69
2020/12/16 02:44:37;;;;;;;3.00;1.80;;;5.10;76.40;;;;;;5098130;28;20020;-69
2020/12/16 02:47:04;;;;;;;3.95;2.20;;;5.20;76.60;;;;;;5097860;28;20024;-71
2020/12/16 02:49:30;;;;;;;2.53;1.85;;;5.30;77.60;;;;;;5097894;28;20031;-72
2020/12/16 02:51:57;;;;;;;2.80;1.80;;;5.30;78.30;;;;;;5097765;28;20028;-72
2020/12/16 02:54:23;;;;;;;3.67;2.55;;;5.30;78.20;;;;;;5098001;28;20053;-72
2020/12/16 02:56:53;;;;;;;9.88;4.50;;;5.40;77.90;;;;;;5097676;28;20032;-72
2020/12/16 02:59:24;;;;;;;5.80;3.70;;;5.40;78.30;;;;;;5098014;28;20020;-72
2020/12/16 03:01:51;;;;;;;2.70;1.90;;;5.40;78.60;;;;;;5079487;28;20028;-72
2020/12/16 03:04:18;;;;;;;2.20;1.63;;;5.40;77.40;;;;;;5097688;28;20020;-72
2020/12/16 03:06:51;;;;;;;3.15;1.80;;;5.50;77.40;;;;;;5097663;28;20035;-72
2020/12/16 03:09:18;;;;;;;2.17;1.50;;;5.60;76.30;;;;;;5097449;28;20034;-72
2020/12/16 03:11:44;;;;;;;2.92;1.80;;;5.70;75.40;;;;;;5097967;28;20032;-72
2020/12/16 03:14:10;;;;;;;2.30;1.70;;;5.90;74.70;;;;;;5097320;28;20028;-72
2020/12/16 03:16:37;;;;;;;2.60;1.50;;;6.00;74.00;;;;;;5097503;28;20035;-72
2020/12/16 03:19:05;;;;;;;2.92;1.70;;;6.00;74.20;;;;;;5097354;28;20131;-72
2020/12/16 03:21:31;;;;;;;2.95;2.13;;;6.10;71.30;;;;;;5097448;28;20035;-69
2020/12/16 03:23:56;;;;;;;2.90;1.70;;;6.20;70.20;;;;;;5097405;28;20018;-71
2020/12/16 03:26:22;;;;;;;2.17;1.48;;;6.30;70.70;;;;;;5096998;28;20329;-72
2020/12/16 03:28:54;;;;;;;2.20;1.73;;;6.30;72.10;;;;;;5097535;28;20099;-72
2020/12/16 03:31:19;;;;;;;2.58;1.70;;;6.30;72.20;;;;;;5097174;28;20055;-72
2020/12/16 03:33:46;;;;;;;2.33;1.50;;;6.30;72.10;;;;;;5097268;28;20056;-72
2020/12/16 03:36:17;;;;;;;2.85;1.75;;;6.30;72.70;;;;;;5097061;28;20028;-70
2020/12/16 03:38:43;;;;;;;2.20;1.40;;;6.20;72.40;;;;;;5097007;28;20058;-70
2020/12/16 03:41:09;;;;;;;2.28;1.48;;;6.20;73.30;;;;;;5097178;28;20028;-69
2020/12/16 03:43:35;;;;;;;2.85;1.30;;;6.10;74.00;;;;;;5097224;28;20085;-69
2020/12/16 03:46:01;;;;;;;3.45;1.60;;;6.10;73.20;;;;;;5096883;28;20396;-71
2020/12/16 03:48:27;;;;;;;2.20;1.52;;;6.00;73.20;;;;;;5097127;28;20107;-72
2020/12/16 03:50:52;;;;;;;2.10;1.40;;;6.00;73.80;;;;;;5096856;28;20034;-72
2020/12/16 03:53:18;;;;;;;1.42;1.13;;;6.00;74.20;;;;;;5096923;28;20042;-72
2020/12/16 03:55:43;;;;;;;6.25;1.75;;;6.00;72.70;;;;;;5078832;28;20305;-72
2020/12/16 03:58:09;;;;;;;2.30;1.58;;;6.00;73.10;;;;;;5096727;28;20028;-70
2020/12/16 04:00:35;;;;;;;4.32;1.95;;;6.00;72.50;;;;;;5097081;28;20059;-70
2020/12/16 04:03:00;;;;;;;2.42;1.92;;;6.10;71.50;;;;;;5096699;28;20031;-70
2020/12/16 04:05:26;;;;;;;2.28;1.38;;;6.10;71.60;;;;;;5097226;28;20032;-71
2020/12/16 04:07:52;;;;;;;2.88;1.48;;;6.10;72.60;;;;;;5096935;28;20020;-72
2020/12/16 04:10:18;;;;;;;3.30;1.80;;;6.00;72.30;;;;;;5096839;28;20025;-72
2020/12/16 04:12:43;;;;;;;2.42;1.50;;;6.00;73.50;;;;;;5096799;28;20028;-72
2020/12/16 04:15:09;;;;;;;2.28;1.70;;;5.90;74.70;;;;;;5096509;28;20065;-72
2020/12/16 04:17:36;;;;;;;2.97;2.05;;;5.80;74.60;;;;;;5096850;28;20059;-72
2020/12/16 04:20:03;;;;;;;3.60;1.77;;;5.70;74.60;;;;;;5096903;28;20038;-72
2020/12/16 04:22:31;;;;;;;2.42;1.58;;;5.70;74.60;;;;;;5097669;28;20024;-72
2020/12/16 04:24:57;;;;;;;2.97;1.60;;;5.70;74.00;;;;;;5101011;28;20028;-72
2020/12/16 04:27:23;;;;;;;3.25;1.67;;;5.70;75.20;;;;;;5100758;28;20343;-72
2020/12/16 04:29:51;;;;;;;2.03;1.35;;;5.80;74.80;;;;;;5100561;28;20035;-72
2020/12/16 04:32:16;;;;;;;1.77;1.38;;;5.80;76.20;;;;;;5100416;28;20024;-72
2020/12/16 04:34:44;;;;;;;2.03;1.27;;;5.90;76.10;;;;;;5082198;28;20028;-72
2020/12/16 04:37:13;;;;;;;2.55;1.60;;;5.90;74.30;;;;;;5100332;28;20024;-72
2020/12/16 04:39:39;;;;;;;2.10;1.17;;;6.00;75.00;;;;;;5100677;28;20358;-72
2020/12/16 04:42:04;;;;;;;1.95;1.45;;;6.00;73.40;;;;;;5100214;28;20020;-72
2020/12/16 04:44:30;;;;;;;1.92;1.58;;;6.00;74.10;;;;;;5100193;28;20119;-72
2020/12/16 04:46:56;;;;;;;1.90;1.50;;;6.00;74.70;;;;;;5082193;28;20115;-72
2020/12/16 04:49:22;;;;;;;2.38;1.33;;;6.00;74.60;;;;;;5100390;28;20027;-72
2020/12/16 04:51:51;;;;;;;2.13;1.42;;;6.00;75.20;;;;;;5100105;28;20028;-72
2020/12/16 04:54:16;;;;;;;2.40;1.30;;;6.00;73.80;;;;;;5100371;28;20035;-72
2020/12/16 04:56:43;;;;;;;2.25;1.48;;;5.90;74.50;;;;;;5100027;28;20032;-72
2020/12/16 04:59:09;;;;;;;1.65;1.10;;;5.90;75.10;;;;;;5100256;28;20027;-72
2020/12/16 05:01:44;;;;;;;2.67;1.75;;;5.80;76.70;;;;;;5099878;28;20027;-72
2020/12/16 05:04:10;;;;;;;3.00;2.00;;;5.80;77.50;;;;;;5100076;28;20035;-72
2020/12/16 05:06:45;;;;;;;4.28;2.45;;;5.70;75.50;;;;;;5099809;28;20029;-72
2020/12/16 05:09:13;;;;;;;2.92;2.40;;;5.70;74.90;;;;;;5099887;28;20435;-72
2020/12/16 05:11:47;;;;;;;2.35;1.70;;;5.70;74.60;;;;;;5099787;28;20352;-72
2020/12/16 05:14:14;;;;;;;2.88;1.85;;;5.70;74.40;;;;;;5099866;28;20331;-72
2020/12/16 05:17:02;;;;;;;2.78;1.60;;;5.70;74.00;;;;;;5099628;28;20472;-72
2020/12/16 05:19:48;;;;;;;5.28;2.42;;;5.80;73.60;;;;;;5099807;28;20028;-72
2020/12/16 05:22:30;;;;;;;2.57;1.70;;;5.80;74.40;;;;;;5099609;28;20400;-72
2020/12/16 05:25:01;;;;;;;3.47;1.90;;;5.90;76.40;;;;;;5099835;28;20407;-72
2020/12/16 05:27:32;;;;;;;3.03;2.40;;;5.80;78.30;;;;;;5099289;28;20055;-72
2020/12/16 05:30:00;;;;;;;4.95;2.92;;;5.70;76.70;;;;;;5099689;28;20024;-72
2020/12/16 05:32:31;;;;;;;3.13;2.30;;;5.70;79.10;;;;;;5099381;28;20020;-72
2020/12/16 05:34:58;;;;;;;4.10;2.30;;;5.70;79.60;;;;;;5098064;28;20020;-72
2020/12/16 05:37:35;;;;;;;6.65;2.05;;;5.60;80.60;;;;;;5099187;28;20020;-72
2020/12/16 05:40:10;;;;;;;3.03;2.15;;;5.60;82.40;;;;;;5099389;28;20035;-72
2020/12/16 05:42:39;;;;;;;3.28;2.35;;;5.50;80.10;;;;;;5099337;28;20028;-72
2020/12/16 05:45:20;;;;;;;15.55;7.47;;;5.40;78.70;;;;;;5099297;28;20020;-72
2020/12/16 05:48:00;;;;;;;14.38;10.40;;;5.40;80.10;;;;;;5099243;28;20020;-72
2020/12/16 05:50:40;;;;;;;16.17;10.30;;;5.30;82.00;;;;;;5099000;28;20028;-72
2020/12/16 05:53:23;;;;;;;4.13;2.60;;;5.30;82.60;;;;;;5099143;28;20027;-72
2020/12/16 05:56:02;;;;;;;3.55;1.98;;;5.30;83.40;;;;;;5098932;28;20327;-72
2020/12/16 05:58:33;;;;;;;3.78;1.90;;;5.20;82.10;;;;;;5099098;28;20073;-72
2020/12/16 06:01:08;;;;;;;4.07;1.80;;;5.20;82.00;;;;;;5098977;28;20031;-72
2020/12/16 06:03:38;;;;;;;3.37;1.70;;;5.30;82.60;;;;;;5098967;28;20054;-72
2020/12/16 06:06:07;;;;;;;22.60;10.75;;;5.40;82.90;;;;;;5098598;28;20024;-72
2020/12/16 06:08:43;;;;;;;23.90;11.63;;;5.50;81.50;;;;;;5080753;28;20020;-72
2020/12/16 06:11:11;;;;;;;6.15;3.40;;;5.50;80.60;;;;;;5098626;28;20424;-72
2020/12/16 06:13:46;;;;;;;4.45;2.90;;;5.70;78.50;;;;;;5080608;28;20065;-72
2020/12/16 06:16:12;;;;;;;7.50;2.45;;;5.70;78.10;;;;;;5098772;28;20320;-72
2020/12/16 06:18:44;;;;;;;3.90;2.45;;;5.80;77.80;;;;;;5098357;28;20024;-72
2020/12/16 06:21:11;;;;;;;3.42;2.35;;;5.80;76.10;;;;;;5098612;28;20035;-72
2020/12/16 06:23:39;;;;;;;12.30;4.47;;;5.80;79.10;;;;;;5098455;28;20028;-71
2020/12/16 06:26:06;;;;;;;3.35;2.35;;;5.80;78.20;;;;;;5097992;28;20077;-70
2020/12/16 06:28:32;;;;;;;3.47;2.33;;;5.70;79.30;;;;;;5098361;28;20020;-71
2020/12/16 06:31:03;;;;;;;3.08;2.10;;;5.60;80.90;;;;;;5098387;28;20047;-72
2020/12/16 06:33:58;;;;;;;2.35;1.75;;;5.50;80.90;;;;;;5098198;28;20024;-72
2020/12/16 06:36:32;;;;;;;2.22;1.50;;;5.40;83.10;;;;;;5098133;28;20103;-72
2020/12/16 06:38:59;;;;;;;2.88;1.40;;;5.30;83.90;;;;;;5098315;28;20016;-72
2020/12/16 06:41:30;;;;;;;1.58;1.02;;;5.30;84.90;;;;;;5097998;28;20328;-72
2020/12/16 06:44:07;;;;;;;3.88;1.42;;;5.30;86.10;;;;;;5097886;28;20024;-72
2020/12/16 06:46:33;;;;;;;3.53;2.22;;;5.30;87.00;;;;;;5097673;28;20039;-70
2020/12/16 06:49:09;;;;;;;3.00;2.00;;;5.40;82.30;;;;;;5097953;28;20016;-72
2020/12/16 06:51:46;;;;;;;3.03;2.05;;;5.40;82.50;;;;;;5098082;28;20028;-72
2020/12/16 06:54:13;;;;;;;3.22;2.22;;;5.40;81.20;;;;;;5097814;28;20053;-72
2020/12/16 06:56:40;;;;;;;11.43;4.30;;;5.30;80.80;;;;;;5079803;28;20327;-72
2020/12/16 06:59:05;;;;;;;8.00;4.00;;;5.30;81.10;;;;;;5097733;28;20028;-70
2020/12/16 07:01:32;;;;;;;5.43;2.78;;;5.30;82.60;;;;;;5097582;28;20074;-70
2020/12/16 07:03:58;;;;;;;3.85;2.60;;;5.20;83.50;;;;;;5097579;28;20024;-70
2020/12/16 07:06:29;;;;;;;2.95;2.13;;;5.20;83.90;;;;;;5079636;28;20024;-72
2020/12/16 07:09:14;;;;;;;4.72;1.98;;;5.20;85.50;;;;;;5097506;28;20024;-70
2020/12/16 07:11:43;;;;;;;3.40;2.00;;;5.00;85.20;;;;;;5097481;28;20031;-70
2020/12/16 07:14:13;;;;;;;4.25;2.58;;;4.90;85.60;;;;;;5097323;28;20020;-70
2020/12/16 07:16:40;;;;;;;4.28;3.22;;;4.90;85.80;;;;;;5097414;28;20055;-71
2020/12/16 07:19:08;;;;;;;7.82;3.85;;;4.90;85.90;;;;;;5097312;28;20031;-72
2020/12/16 07:21:38;;;;;;;16.90;6.97;;;4.90;86.00;;;;;;5097236;28;20028;-72
2020/12/16 07:24:14;;;;;;;7.28;4.78;;;5.00;85.30;;;;;;5097421;28;20085;-72
2020/12/16 07:26:46;;;;;;;11.93;5.13;;;5.10;85.80;;;;;;5097033;28;20448;-70
2020/12/16 07:29:18;;;;;;;3.35;1.77;;;5.10;84.40;;;;;;5097221;28;20020;-70
2020/12/16 07:32:19;;;;;;;3.85;1.88;;;5.20;83.00;;;;;;5097137;28;20361;-70
2020/12/16 07:34:47;;;;;;;2.10;1.30;;;5.30;83.50;;;;;;5044290;28;20152;-70
2020/12/16 07:37:14;;;;;;;1.52;1.20;;;5.40;84.30;;;;;;5097192;28;20035;-70
2020/12/16 07:39:47;;;;;;;2.17;1.30;;;5.40;84.10;;;;;;5097502;28;20107;-70
2020/12/16 07:42:38;;;;;;;2.33;1.15;;;5.50;80.80;;;;;;5097349;28;20411;-71
2020/12/16 07:45:07;;;;;;;2.35;1.23;;;5.60;80.40;;;;;;5096303;28;20059;-70
2020/12/16 07:47:32;;;;;;;3.28;1.30;;;5.70;82.50;;;;;;5096891;28;20024;-71
2020/12/16 07:49:58;;;;;;;1.98;1.48;;;5.90;80.60;;;;;;5079030;28;20311;-72
2020/12/16 07:52:28;;;;;;;2.67;1.48;;;6.00;79.20;;;;;;5096854;28;20030;-72
2020/12/16 07:54:58;;;;;;;3.13;1.70;;;6.20;79.00;;;;;;5097251;28;20042;-72
2020/12/16 07:57:31;;;;;;;4.68;1.90;;;6.30;76.30;;;;;;5096098;28;20111;-72
2020/12/16 07:59:59;;;;;;;2.90;1.65;;;6.40;76.70;;;;;;5097135;28;20024;-72
2020/12/16 08:02:27;;;;;;;3.65;1.60;;;6.40;74.10;;;;;;5096695;28;20028;-72
2020/12/16 08:04:55;;;;;;;2.58;1.70;;;6.50;76.00;;;;;;5096676;28;20420;-72
2020/12/16 08:07:21;;;;;;;2.80;1.92;;;6.50;74.70;;;;;;5096745;28;20408;-72
2020/12/16 08:09:55;;;;;;;2.20;1.55;;;6.50;73.70;;;;;;5096715;28;20024;-72
2020/12/16 08:12:25;;;;;;;2.00;1.40;;;6.60;78.00;;;;;;5096901;28;20081;-70
2020/12/16 08:15:23;;;;;;;1.90;1.08;;;6.60;78.90;;;;;;5096610;28;20055;-70
2020/12/16 08:17:51;;;;;;;1.75;1.40;;;6.70;77.30;;;;;;5096226;28;20044;-71
2020/12/16 08:20:22;;;;;;;2.13;1.20;;;6.70;78.70;;;;;;5096656;28;20040;-72
2020/12/16 08:22:50;;;;;;;3.00;1.55;;;6.70;78.70;;;;;;5096399;28;20080;-70
2020/12/16 08:25:18;;;;;;;2.55;1.50;;;6.70;79.40;;;;;;5096509;28;20080;-70
2020/12/16 08:27:56;;;;;;;1.98;1.23;;;6.70;79.90;;;;;;5096373;28;20123;-70
2020/12/16 08:30:24;;;;;;;1.70;1.13;;;6.70;80.30;;;;;;5096819;28;20016;-70
2020/12/16 08:32:59;;;;;;;1.35;1.20;;;6.70;78.70;;;;;;5096502;28;20024;-70
2020/12/16 08:35:52;;;;;;;1.80;1.25;;;6.70;77.50;;;;;;5096631;28;20484;-70
2020/12/16 08:38:29;;;;;;;1.70;1.10;;;6.70;77.70;;;;;;5095741;28;20032;-70
2020/12/16 08:40:57;;;;;;;1.48;0.85;;;6.70;76.10;;;;;;5096478;28;20431;-71
2020/12/16 08:43:24;;;;;;;1.75;1.20;;;6.80;77.00;;;;;;5096344;28;20032;-70
2020/12/16 08:46:01;;;;;;;2.75;1.38;;;6.80;78.50;;;;;;5096590;28;20365;-70
2020/12/16 08:48:27;;;;;;;1.58;1.15;;;6.80;77.60;;;;;;5096648;28;20311;-70
2020/12/16 08:51:07;;;;;;;3.40;1.60;;;6.80;78.20;;;;;;5096668;28;20028;-70
2020/12/16 08:53:55;;;;;;;3.45;2.15;;;6.80;79.20;;;;;;5096504;28;20028;-70
2020/12/16 08:56:24;;;;;;;2.25;1.52;;;6.80;77.60;;;;;;5096567;28;20035;-70
2020/12/16 08:59:06;;;;;;;7.40;3.50;;;6.70;79.00;;;;;;5096278;28;20023;-70
2020/12/16 09:01:33;;;;;;;2.08;1.50;;;6.70;78.30;;;;;;5078298;28;20380;-70
2020/12/16 09:04:01;;;;;;;2.60;1.52;;;6.70;78.30;;;;;;5096383;28;20055;-70
2020/12/16 09:06:27;;;;;;;2.60;1.90;;;6.70;79.70;;;;;;5078223;28;20024;-70
2020/12/16 09:08:52;;;;;;;1.90;1.30;;;6.70;80.90;;;;;;5079863;28;20072;-70
2020/12/16 09:11:19;;;;;;;1.95;1.27;;;6.80;79.60;;;;;;5100064;28;20104;-70
2020/12/16 09:13:46;;;;;;;1.67;1.23;;;6.80;80.80;;;;;;5081687;28;20502;-70
2020/12/16 09:16:21;;;;;;;2.33;1.60;;;6.90;81.90;;;;;;5099724;28;20047;-70
2020/12/16 09:18:48;;;;;;;3.10;2.30;;;6.90;82.00;;;;;;5099693;28;20016;-70
2020/12/16 09:21:29;;;;;;;2.80;1.85;;;6.90;81.10;;;;;;5100015;28;20024;-70
2020/12/16 09:23:55;;;;;;;2.60;2.20;;;6.90;81.70;;;;;;5099755;28;20133;-70
2020/12/16 09:26:33;;;;;;;3.42;2.15;;;6.90;81.80;;;;;;5099349;28;20060;-70
2020/12/16 09:28:59;;;;;;;2.53;1.73;;;6.90;81.30;;;;;;5099713;28;20382;-72
2020/12/16 09:31:25;;;;;;;2.85;2.15;;;6.80;75.70;;;;;;5081454;28;20059;-72
2020/12/16 09:34:01;;;;;;;2.63;1.80;;;6.80;73.20;;;;;;5081319;28;20024;-72
2020/12/16 09:36:28;;;;;;;2.83;1.63;;;6.70;74.60;;;;;;5099602;28;20098;-72
2020/12/16 09:38:59;;;;;;;2.92;1.95;;;6.60;76.50;;;;;;5099330;28;20024;-72
2020/12/16 09:41:25;;;;;;;2.00;1.63;;;6.60;75.40;;;;;;5099177;28;20028;-72
2020/12/16 09:43:51;;;;;;;2.42;1.70;;;6.60;76.70;;;;;;5099091;28;20439;-71
2020/12/16 09:46:22;;;;;;;3.50;2.15;;;6.60;77.40;;;;;;5099101;28;20024;-72
2020/12/16 09:48:50;;;;;;;6.28;2.53;;;6.70;76.40;;;;;;5099146;28;20019;-71
2020/12/16 09:51:17;;;;;;;3.60;2.40;;;6.70;77.00;;;;;;5099029;28;20053;-71
2020/12/16 09:53:44;;;;;;;2.63;2.20;;;6.70;77.80;;;;;;5099049;28;20020;-72
2020/12/16 09:56:25;;;;;;;3.00;2.17;;;6.90;76.80;;;;;;5081028;28;20027;-70
2020/12/16 09:58:51;;;;;;;3.47;2.55;;;7.00;76.60;;;;;;5098885;28;20031;-70
2020/12/16 10:01:18;;;;;;;3.38;2.75;;;7.10;75.70;;;;;;5098766;28;20024;-70
2020/12/16 10:03:46;;;;;;;3.20;2.47;;;7.20;74.60;;;;;;5098610;28;20439;-70
2020/12/16 10:06:13;;;;;;;2.72;1.95;;;7.20;76.10;;;;;;5098253;28;20032;-70
2020/12/16 10:08:42;;;;;;;2.90;1.90;;;7.30;77.00;;;;;;5090270;28;20028;-70
2020/12/16 10:11:11;;;;;;;2.65;1.90;;;7.40;76.10;;;;;;5080416;28;20025;-70
2020/12/16 10:13:39;;;;;;;2.92;1.95;;;7.50;74.40;;;;;;5078316;28;20021;-70
2020/12/16 10:16:05;;;;;;;2.85;1.50;;;7.70;73.70;;;;;;5078416;28;20108;-70
2020/12/16 10:18:32;;;;;;;2.42;1.70;;;7.90;70.50;;;;;;5078208;28;20375;-70
2020/12/16 10:20:58;;;;;;;3.42;1.38;;;8.00;70.60;;;;;;5077577;28;20024;-70
2020/12/16 10:23:24;;;;;;;1.88;1.00;;;8.10;72.30;;;;;;5060271;28;20024;-70
2020/12/16 10:25:49;;;;;;;1.95;1.40;;;8.10;67.40;;;;;;5077848;28;20029;-70
2020/12/16 10:28:15;;;;;;;1.80;1.20;;;8.10;68.50;;;;;;5078251;28;20016;-70
2020/12/16 10:30:41;;;;;;;1.83;1.33;;;8.20;68.70;;;;;;5078052;28;20025;-70
2020/12/16 10:33:07;;;;;;;2.22;1.02;;;8.20;68.80;;;;;;5077920;28;20428;-72
2020/12/16 10:35:48;;;;;;;2.42;1.13;;;8.20;69.30;;;;;;5044938;28;20053;-72
2020/12/16 10:38:14;;;;;;;1.77;1.17;;;8.20;70.30;;;;;;5077845;28;20031;-72
2020/12/16 10:40:41;;;;;;;3.10;2.05;;;8.20;70.30;;;;;;5077841;28;20101;-72
2020/12/16 10:43:06;;;;;;;3.22;2.17;;;8.30;70.50;;;;;;5077607;28;20059;-72
2020/12/16 10:45:32;;;;;;;3.25;1.85;;;8.30;70.90;;;;;;5059955;28;20052;-72
2020/12/16 10:47:59;;;;;;;3.78;2.70;;;8.30;71.70;;;;;;5077651;28;20021;-72
2020/12/16 10:50:32;;;;;;;5.78;3.47;;;8.30;74.50;;;;;;5059899;28;20051;-72
2020/12/16 10:52:59;;;;;;;4.93;3.40;;;8.30;74.70;;;;;;5077682;28;20036;-72
2020/12/16 10:55:26;;;;;;;3.92;3.20;;;8.20;75.40;;;;;;5077411;28;20037;-72
2020/12/16 10:57:52;;;;;;;4.07;3.35;;;8.00;75.50;;;;;;5077759;28;20074;-72
2020/12/16 11:00:18;;;;;;;4.40;3.20;;;7.90;75.80;;;;;;5077433;28;20035;-72
2020/12/16 11:02:44;;;;;;;2.80;2.17;;;7.80;76.50;;;;;;5077300;28;20024;-72
2020/12/16 11:05:10;;;;;;;3.22;2.15;;;7.80;75.10;;;;;;5077275;28;20081;-73
2020/12/16 11:07:35;;;;;;;3.13;2.38;;;7.90;73.00;;;;;;5077215;28;20024;-72
2020/12/16 11:10:01;;;;;;;3.63;2.63;;;8.20;73.00;;;;;;5077442;28;20035;-72
2020/12/16 11:12:27;;;;;;;4.38;2.10;;;9.10;74.00;;;;;;5077207;28;20099;-73
2020/12/16 11:14:52;;;;;;;3.95;2.90;;;10.50;67.80;;;;;;5077103;28;20082;-70
2020/12/16 11:17:18;;;;;;;3.40;2.58;;;11.30;64.80;;;;;;5077111;28;20030;-70
2020/12/16 11:19:44;;;;;;;3.47;2.55;;;12.00;63.60;;;;;;5077375;28;20420;-70
2020/12/16 11:22:10;;;;;;;3.75;2.67;;;12.70;61.90;;;;;;5077096;28;20024;-70
2020/12/16 11:24:36;;;;;;;3.90;2.97;;;13.50;60.00;;;;;;5077262;28;20025;-71
2020/12/16 11:27:01;;;;;;;4.20;3.45;;;14.00;57.60;;;;;;5076936;28;20385;-71
2020/12/16 11:29:27;;;;;;;5.10;3.40;;;13.50;58.50;;;;;;5077220;28;20024;-70
2020/12/16 11:31:57;;;;;;;5.78;3.75;;;12.60;59.90;;;;;;5075999;28;20029;-70
2020/12/16 11:34:24;;;;;;;5.68;3.95;;;11.80;63.40;;;;;;5076779;28;20028;-71
2020/12/16 11:36:53;;;;;;;4.15;3.22;;;11.10;66.40;;;;;;5076857;28;20424;-70
2020/12/16 11:39:19;;;;;;;5.15;4.07;;;10.70;67.00;;;;;;5076896;28;20439;-70
2020/12/16 11:41:52;;;;;;;5.45;3.47;;;10.40;67.60;;;;;;5076750;28;20033;-70
2020/12/16 11:44:19;;;;;;;7.75;5.15;;;10.10;68.30;;;;;;5076725;28;20025;-72
2020/12/16 11:46:45;;;;;;;6.07;5.47;;;10.00;71.20;;;;;;5076771;28;20082;-73
2020/12/16 11:49:12;;;;;;;7.35;5.18;;;9.80;70.90;;;;;;5076991;28;20013;-72
2020/12/16 11:51:38;;;;;;;6.03;5.00;;;9.50;70.80;;;;;;5076949;28;20040;-72
2020/12/16 11:54:04;;;;;;;6.10;5.38;;;9.50;72.30;;;;;;5076883;28;20039;-73
2020/12/16 11:56:32;;;;;;;6.05;4.13;;;9.50;73.20;;;;;;5076688;28;20425;-72
2020/12/16 11:58:58;;;;;;;5.40;3.78;;;9.50;70.50;;;;;;5076658;28;20103;-70
2020/12/16 12:01:24;;;;;;;6.15;4.10;;;9.50;71.60;;;;;;5076502;28;20108;-72
2020/12/16 12:03:49;;;;;;;5.35;3.90;;;9.50;70.20;;;;;;5076514;28;20031;-72
2020/12/16 12:06:15;;;;;;;5.30;3.85;;;9.80;70.70;;;;;;5076513;28;20025;-73
2020/12/16 12:08:42;;;;;;;4.65;3.85;;;10.30;70.20;;;;;;5076619;28;20020;-72
2020/12/16 12:11:18;;;;;;;4.68;3.90;;;10.40;69.90;;;;;;5076569;28;20397;-72
2020/12/16 12:13:44;;;;;;;4.68;3.42;;;10.40;70.20;;;;;;5076469;28;20024;-72
2020/12/16 12:16:14;;;;;;;4.70;3.75;;;10.40;69.80;;;;;;5076436;28;20025;-72
2020/12/16 12:18:40;;;;;;;4.70;3.55;;;10.20;69.90;;;;;;5076491;28;20024;-72
2020/12/16 12:21:10;;;;;;;3.55;2.90;;;10.00;70.20;;;;;;5077011;28;20028;-72
2020/12/16 12:23:36;;;;;;;5.53;3.00;;;10.00;71.50;;;;;;5058429;28;20017;-70
2020/12/16 12:26:03;;;;;;;3.40;2.45;;;9.90;69.70;;;;;;5076112;28;20039;-73
2020/12/16 12:28:29;;;;;;;4.95;3.67;;;9.90;68.90;;;;;;5058580;28;20142;-72
2020/12/16 12:30:55;;;;;;;7.97;3.72;;;9.90;69.40;;;;;;5076984;28;20403;-72
2020/12/16 12:33:21;;;;;;;4.53;3.42;;;9.90;71.60;;;;;;5076415;28;20096;-72
2020/12/16 12:35:49;;;;;;;4.18;3.70;;;9.80;70.50;;;;;;5076250;28;20020;-71
2020/12/16 12:38:15;;;;;;;7.20;3.90;;;9.60;71.60;;;;;;5076253;28;20028;-70
2020/12/16 12:40:41;;;;;;;4.20;3.40;;;9.60;72.00;;;;;;5076406;28;20423;-70
2020/12/16 12:43:07;;;;;;;4.30;3.13;;;9.70;71.70;;;;;;5076761;28;20056;-72
2020/12/16 12:45:33;;;;;;;5.47;3.72;;;9.90;71.70;;;;;;5079953;28;20056;-71
2020/12/16 12:47:59;;;;;;;3.75;2.95;;;10.10;72.50;;;;;;5062213;28;20013;-72
2020/12/16 12:50:26;;;;;;;6.00;4.18;;;10.20;70.00;;;;;;5062498;28;20312;-70
2020/12/16 12:52:55;;;;;;;6.20;3.92;;;10.20;70.70;;;;;;5079775;28;20094;-70
2020/12/16 12:55:20;;;;;;;4.40;3.65;;;10.40;70.50;;;;;;5079884;28;20056;-70
2020/12/16 12:57:46;;;;;;;5.28;3.50;;;10.50;69.40;;;;;;5079733;28;20063;-70
2020/12/16 13:00:13;;;;;;;5.57;3.25;;;10.40;68.80;;;;;;5080059;28;20059;-72
2020/12/16 13:02:39;;;;;;;3.67;3.05;;;10.20;69.50;;;;;;5079624;28;20074;-71